sensor_id;sensor_type;location;lat;lon;timestamp;P1;durP1;ratioP1;P2;durP2;ratioP2
69594;SDS011;56800;52.142;5.364;2022-08-16T00:02:30;10.48;;;8.10;;
69594;SDS011;56800;52.142;5.364;2022-08-16T00:04:58;12.20;;;8.83;;
69594;SDS011;56800;52.142;5.364;2022-08-16T00:07:26;12.57;;;8.63;;
69594;SDS011;56800;52.142;5.364;2022-08-16T00:09:54;10.13;;;8.38;;
69594;SDS011;56800;52.142;5.364;2022-08-16T00:12:22;13.27;;;8.55;;
69594;SDS011;56800;52.142;5.364;2022-08-16T00:14:52;12.98;;;8.88;;
69594;SDS011;56800;52.142;5.364;2022-08-16T00:17:22;13.60;;;8.80;;
69594;SDS011;56800;52.142;5.364;2022-08-16T00:19:51;10.93;;;9.30;;
69594;SDS011;56800;52.142;5.364;2022-08-16T00:22:21;12.55;;;9.15;;
69594;SDS011;56800;52.142;5.364;2022-08-16T00:24:51;16.70;;;8.93;;
69594;SDS011;56800;52.142;5.364;2022-08-16T00:27:20;13.23;;;9.70;;
69594;SDS011;56800;52.142;5.364;2022-08-16T00:29:48;14.00;;;8.30;;
69594;SDS011;56800;52.142;5.364;2022-08-16T00:32:34;10.70;;;8.48;;
69594;SDS011;56800;52.142;5.364;2022-08-16T00:35:06;12.85;;;9.23;;
69594;SDS011;56800;52.142;5.364;2022-08-16T00:37:40;13.18;;;9.18;;
69594;SDS011;56800;52.142;5.364;2022-08-16T00:40:26;12.55;;;9.73;;
69594;SDS011;56800;52.142;5.364;2022-08-16T00:43:17;13.57;;;10.07;;
69594;SDS011;56800;52.142;5.364;2022-08-16T00:48:52;15.27;;;10.10;;
69594;SDS011;56800;52.142;5.364;2022-08-16T00:51:20;12.60;;;10.00;;
69594;SDS011;56800;52.142;5.364;2022-08-16T00:53:48;18.52;;;9.90;;
69594;SDS011;56800;52.142;5.364;2022-08-16T00:56:17;15.73;;;10.30;;
69594;SDS011;56800;52.142;5.364;2022-08-16T00:59:08;14.50;;;8.68;;
69594;SDS011;56800;52.142;5.364;2022-08-16T01:01:40;12.52;;;9.25;;
69594;SDS011;56800;52.142;5.364;2022-08-16T01:04:08;12.57;;;8.57;;
69594;SDS011;56800;52.142;5.364;2022-08-16T01:06:56;15.23;;;8.70;;
69594;SDS011;56800;52.142;5.364;2022-08-16T01:09:28;10.87;;;7.83;;
69594;SDS011;56800;52.142;5.364;2022-08-16T01:12:03;13.00;;;8.93;;
69594;SDS011;56800;52.142;5.364;2022-08-16T01:14:40;12.55;;;8.80;;
69594;SDS011;56800;52.142;5.364;2022-08-16T01:17:12;13.15;;;9.20;;
69594;SDS011;56800;52.142;5.364;2022-08-16T01:19:43;13.27;;;10.63;;
69594;SDS011;56800;52.142;5.364;2022-08-16T01:22:27;18.10;;;11.27;;
69594;SDS011;56800;52.142;5.364;2022-08-16T01:25:17;16.40;;;11.73;;
69594;SDS011;56800;52.142;5.364;2022-08-16T01:27:49;16.13;;;12.05;;
69594;SDS011;56800;52.142;5.364;2022-08-16T01:30:23;19.10;;;13.05;;
69594;SDS011;56800;52.142;5.364;2022-08-16T01:32:54;19.33;;;12.98;;
69594;SDS011;56800;52.142;5.364;2022-08-16T01:35:42;18.97;;;12.20;;
69594;SDS011;56800;52.142;5.364;2022-08-16T01:38:32;15.70;;;11.93;;
69594;SDS011;56800;52.142;5.364;2022-08-16T01:41:12;15.38;;;12.88;;
69594;SDS011;56800;52.142;5.364;2022-08-16T01:43:46;17.50;;;13.73;;
69594;SDS011;56800;52.142;5.364;2022-08-16T01:46:23;19.48;;;13.77;;
69594;SDS011;56800;52.142;5.364;2022-08-16T01:49:05;18.27;;;14.00;;
69594;SDS011;56800;52.142;5.364;2022-08-16T01:51:44;19.20;;;13.30;;
69594;SDS011;56800;52.142;5.364;2022-08-16T01:54:15;16.90;;;13.48;;
69594;SDS011;56800;52.142;5.364;2022-08-16T01:56:55;16.95;;;12.90;;
69594;SDS011;56800;52.142;5.364;2022-08-16T01:59:22;17.70;;;13.77;;
69594;SDS011;56800;52.142;5.364;2022-08-16T02:01:49;17.97;;;12.80;;
69594;SDS011;56800;52.142;5.364;2022-08-16T02:04:25;16.95;;;12.23;;
69594;SDS011;56800;52.142;5.364;2022-08-16T02:07:12;18.55;;;13.30;;
69594;SDS011;56800;52.142;5.364;2022-08-16T02:09:41;17.80;;;12.50;;
69594;SDS011;56800;52.142;5.364;2022-08-16T02:12:23;18.23;;;12.82;;
69594;SDS011;56800;52.142;5.364;2022-08-16T02:15:11;18.30;;;12.83;;
69594;SDS011;56800;52.142;5.364;2022-08-16T02:17:39;18.05;;;13.93;;
69594;SDS011;56800;52.142;5.364;2022-08-16T02:20:07;16.98;;;13.02;;
69594;SDS011;56800;52.142;5.364;2022-08-16T02:22:37;14.85;;;11.70;;
69594;SDS011;56800;52.142;5.364;2022-08-16T02:25:06;20.98;;;13.35;;
69594;SDS011;56800;52.142;5.364;2022-08-16T02:27:37;20.30;;;12.83;;
69594;SDS011;56800;52.142;5.364;2022-08-16T02:30:07;17.15;;;12.10;;
69594;SDS011;56800;52.142;5.364;2022-08-16T02:32:59;13.38;;;9.23;;
69594;SDS011;56800;52.142;5.364;2022-08-16T02:35:28;14.75;;;9.57;;
69594;SDS011;56800;52.142;5.364;2022-08-16T02:37:56;14.73;;;10.57;;
69594;SDS011;56800;52.142;5.364;2022-08-16T02:40:34;15.67;;;9.77;;
69594;SDS011;56800;52.142;5.364;2022-08-16T02:43:01;12.38;;;10.88;;
69594;SDS011;56800;52.142;5.364;2022-08-16T02:45:27;14.35;;;11.05;;
69594;SDS011;56800;52.142;5.364;2022-08-16T02:47:54;17.55;;;11.43;;
69594;SDS011;56800;52.142;5.364;2022-08-16T02:50:41;17.45;;;12.85;;
69594;SDS011;56800;52.142;5.364;2022-08-16T02:53:28;18.27;;;12.63;;
69594;SDS011;56800;52.142;5.364;2022-08-16T02:55:56;17.58;;;12.13;;
69594;SDS011;56800;52.142;5.364;2022-08-16T02:58:24;20.65;;;11.85;;
69594;SDS011;56800;52.142;5.364;2022-08-16T03:00:53;17.92;;;12.02;;
69594;SDS011;56800;52.142;5.364;2022-08-16T03:03:23;14.68;;;11.30;;
69594;SDS011;56800;52.142;5.364;2022-08-16T03:05:51;15.77;;;11.63;;
69594;SDS011;56800;52.142;5.364;2022-08-16T03:08:19;15.65;;;11.30;;
69594;SDS011;56800;52.142;5.364;2022-08-16T03:11:07;16.17;;;11.02;;
69594;SDS011;56800;52.142;5.364;2022-08-16T03:13:48;17.27;;;11.02;;
69594;SDS011;56800;52.142;5.364;2022-08-16T03:16:22;22.60;;;11.85;;
69594;SDS011;56800;52.142;5.364;2022-08-16T03:19:07;16.13;;;11.50;;
69594;SDS011;56800;52.142;5.364;2022-08-16T03:21:34;14.63;;;9.90;;
69594;SDS011;56800;52.142;5.364;2022-08-16T03:24:04;12.73;;;10.88;;
69594;SDS011;56800;52.142;5.364;2022-08-16T03:26:51;16.60;;;11.05;;
69594;SDS011;56800;52.142;5.364;2022-08-16T03:29:18;15.65;;;10.65;;
69594;SDS011;56800;52.142;5.364;2022-08-16T03:31:44;16.00;;;10.37;;
69594;SDS011;56800;52.142;5.364;2022-08-16T03:34:17;16.02;;;11.73;;
69594;SDS011;56800;52.142;5.364;2022-08-16T03:36:45;17.20;;;12.73;;
69594;SDS011;56800;52.142;5.364;2022-08-16T03:39:13;15.20;;;13.43;;
69594;SDS011;56800;52.142;5.364;2022-08-16T03:41:45;18.27;;;12.00;;
69594;SDS011;56800;52.142;5.364;2022-08-16T03:44:16;17.20;;;13.03;;
69594;SDS011;56800;52.142;5.364;2022-08-16T03:47:03;18.85;;;12.63;;
69594;SDS011;56800;52.142;5.364;2022-08-16T03:49:35;21.58;;;12.45;;
69594;SDS011;56800;52.142;5.364;2022-08-16T03:52:03;19.58;;;13.60;;
69594;SDS011;56800;52.142;5.364;2022-08-16T03:54:31;18.58;;;12.45;;
69594;SDS011;56800;52.142;5.364;2022-08-16T03:57:01;18.07;;;14.10;;
69594;SDS011;56800;52.142;5.364;2022-08-16T03:59:30;18.77;;;13.93;;
69594;SDS011;56800;52.142;5.364;2022-08-16T04:01:58;18.77;;;13.10;;
69594;SDS011;56800;52.142;5.364;2022-08-16T04:04:26;22.83;;;14.23;;
69594;SDS011;56800;52.142;5.364;2022-08-16T04:06:59;18.58;;;13.57;;
69594;SDS011;56800;52.142;5.364;2022-08-16T04:09:28;19.53;;;14.13;;
69594;SDS011;56800;52.142;5.364;2022-08-16T04:12:01;23.15;;;16.08;;
69594;SDS011;56800;52.142;5.364;2022-08-16T04:14:36;27.25;;;15.52;;
69594;SDS011;56800;52.142;5.364;2022-08-16T04:17:12;19.50;;;15.13;;
69594;SDS011;56800;52.142;5.364;2022-08-16T04:19:40;20.95;;;14.05;;
69594;SDS011;56800;52.142;5.364;2022-08-16T04:22:11;19.60;;;14.17;;
69594;SDS011;56800;52.142;5.364;2022-08-16T04:24:38;20.88;;;16.55;;
69594;SDS011;56800;52.142;5.364;2022-08-16T04:27:05;19.80;;;15.00;;
69594;SDS011;56800;52.142;5.364;2022-08-16T04:29:34;22.38;;;16.00;;
69594;SDS011;56800;52.142;5.364;2022-08-16T04:32:11;31.65;;;17.65;;
69594;SDS011;56800;52.142;5.364;2022-08-16T04:34:39;21.93;;;15.83;;
69594;SDS011;56800;52.142;5.364;2022-08-16T04:37:05;21.13;;;15.63;;
69594;SDS011;56800;52.142;5.364;2022-08-16T04:39:33;23.35;;;15.98;;
69594;SDS011;56800;52.142;5.364;2022-08-16T04:42:13;23.60;;;16.10;;
69594;SDS011;56800;52.142;5.364;2022-08-16T04:44:40;25.20;;;16.77;;
69594;SDS011;56800;52.142;5.364;2022-08-16T04:47:24;18.73;;;15.07;;
69594;SDS011;56800;52.142;5.364;2022-08-16T04:50:02;18.77;;;14.90;;
69594;SDS011;56800;52.142;5.364;2022-08-16T04:52:33;22.50;;;15.95;;
69594;SDS011;56800;52.142;5.364;2022-08-16T04:55:05;21.33;;;15.48;;
69594;SDS011;56800;52.142;5.364;2022-08-16T04:57:37;22.90;;;16.38;;
69594;SDS011;56800;52.142;5.364;2022-08-16T05:00:08;21.77;;;15.23;;
69594;SDS011;56800;52.142;5.364;2022-08-16T05:02:57;17.50;;;14.93;;
69594;SDS011;56800;52.142;5.364;2022-08-16T05:05:26;19.42;;;14.73;;
69594;SDS011;56800;52.142;5.364;2022-08-16T05:08:08;21.38;;;15.95;;
69594;SDS011;56800;52.142;5.364;2022-08-16T05:10:56;22.38;;;16.83;;
69594;SDS011;56800;52.142;5.364;2022-08-16T05:13:30;19.10;;;15.27;;
69594;SDS011;56800;52.142;5.364;2022-08-16T05:16:06;20.73;;;16.05;;
69594;SDS011;56800;52.142;5.364;2022-08-16T05:18:41;20.67;;;16.80;;
69594;SDS011;56800;52.142;5.364;2022-08-16T05:21:08;20.33;;;16.52;;
69594;SDS011;56800;52.142;5.364;2022-08-16T05:23:37;24.88;;;16.85;;
69594;SDS011;56800;52.142;5.364;2022-08-16T05:26:04;23.00;;;17.07;;
69594;SDS011;56800;52.142;5.364;2022-08-16T05:28:44;21.40;;;17.13;;
69594;SDS011;56800;52.142;5.364;2022-08-16T05:31:20;24.13;;;16.73;;
69594;SDS011;56800;52.142;5.364;2022-08-16T05:33:48;24.65;;;17.13;;
69594;SDS011;56800;52.142;5.364;2022-08-16T05:36:19;24.65;;;18.85;;
69594;SDS011;56800;52.142;5.364;2022-08-16T05:38:47;23.00;;;18.20;;
69594;SDS011;56800;52.142;5.364;2022-08-16T05:41:14;24.77;;;18.88;;
69594;SDS011;56800;52.142;5.364;2022-08-16T05:43:42;27.15;;;21.13;;
69594;SDS011;56800;52.142;5.364;2022-08-16T05:46:13;30.75;;;20.92;;
69594;SDS011;56800;52.142;5.364;2022-08-16T05:48:56;25.38;;;20.23;;
69594;SDS011;56800;52.142;5.364;2022-08-16T05:51:33;27.37;;;18.77;;
69594;SDS011;56800;52.142;5.364;2022-08-16T05:54:05;27.27;;;20.40;;
69594;SDS011;56800;52.142;5.364;2022-08-16T05:56:36;24.25;;;18.73;;
69594;SDS011;56800;52.142;5.364;2022-08-16T05:59:04;28.25;;;20.98;;
69594;SDS011;56800;52.142;5.364;2022-08-16T06:01:32;26.55;;;21.30;;
69594;SDS011;56800;52.142;5.364;2022-08-16T06:04:03;23.57;;;20.57;;
69594;SDS011;56800;52.142;5.364;2022-08-16T06:06:51;25.23;;;19.45;;
69594;SDS011;56800;52.142;5.364;2022-08-16T06:09:22;27.10;;;19.52;;
69594;SDS011;56800;52.142;5.364;2022-08-16T06:12:12;23.77;;;18.40;;
69594;SDS011;56800;52.142;5.364;2022-08-16T06:14:53;24.48;;;19.80;;
69594;SDS011;56800;52.142;5.364;2022-08-16T06:17:24;25.03;;;19.00;;
69594;SDS011;56800;52.142;5.364;2022-08-16T06:20:10;26.83;;;19.58;;
69594;SDS011;56800;52.142;5.364;2022-08-16T06:22:50;27.50;;;20.65;;
69594;SDS011;56800;52.142;5.364;2022-08-16T06:25:29;27.33;;;19.92;;
69594;SDS011;56800;52.142;5.364;2022-08-16T06:28:01;23.15;;;19.60;;
69594;SDS011;56800;52.142;5.364;2022-08-16T06:30:34;25.87;;;18.90;;
69594;SDS011;56800;52.142;5.364;2022-08-16T06:33:09;28.75;;;19.33;;
69594;SDS011;56800;52.142;5.364;2022-08-16T06:35:37;28.48;;;20.77;;
69594;SDS011;56800;52.142;5.364;2022-08-16T06:38:07;31.35;;;20.92;;
69594;SDS011;56800;52.142;5.364;2022-08-16T06:40:55;33.35;;;21.00;;
69594;SDS011;56800;52.142;5.364;2022-08-16T06:43:21;35.47;;;22.47;;
69594;SDS011;56800;52.142;5.364;2022-08-16T06:45:52;35.08;;;22.73;;
69594;SDS011;56800;52.142;5.364;2022-08-16T06:48:19;35.47;;;21.95;;
69594;SDS011;56800;52.142;5.364;2022-08-16T06:50:58;30.25;;;20.40;;
69594;SDS011;56800;52.142;5.364;2022-08-16T06:53:24;37.65;;;21.55;;
69594;SDS011;56800;52.142;5.364;2022-08-16T06:55:56;34.77;;;20.00;;
69594;SDS011;56800;52.142;5.364;2022-08-16T06:58:23;34.13;;;20.02;;
69594;SDS011;56800;52.142;5.364;2022-08-16T07:00:56;26.88;;;19.33;;
69594;SDS011;56800;52.142;5.364;2022-08-16T07:03:25;29.02;;;19.27;;
69594;SDS011;56800;52.142;5.364;2022-08-16T07:06:12;30.77;;;19.60;;
69594;SDS011;56800;52.142;5.364;2022-08-16T07:08:39;26.07;;;18.97;;
69594;SDS011;56800;52.142;5.364;2022-08-16T07:11:08;28.75;;;18.83;;
69594;SDS011;56800;52.142;5.364;2022-08-16T07:13:35;27.10;;;19.52;;
69594;SDS011;56800;52.142;5.364;2022-08-16T07:16:22;26.52;;;18.75;;
69594;SDS011;56800;52.142;5.364;2022-08-16T07:18:53;23.58;;;18.67;;
69594;SDS011;56800;52.142;5.364;2022-08-16T07:21:26;24.73;;;17.90;;
69594;SDS011;56800;52.142;5.364;2022-08-16T07:24:11;29.15;;;19.45;;
69594;SDS011;56800;52.142;5.364;2022-08-16T07:26:55;23.75;;;18.35;;
69594;SDS011;56800;52.142;5.364;2022-08-16T07:29:26;23.73;;;18.33;;
69594;SDS011;56800;52.142;5.364;2022-08-16T07:32:00;26.48;;;17.35;;
69594;SDS011;56800;52.142;5.364;2022-08-16T07:34:28;24.20;;;17.97;;
69594;SDS011;56800;52.142;5.364;2022-08-16T07:37:02;25.33;;;18.83;;
69594;SDS011;56800;52.142;5.364;2022-08-16T07:39:31;21.95;;;17.90;;
69594;SDS011;56800;52.142;5.364;2022-08-16T07:41:59;23.90;;;17.48;;
69594;SDS011;56800;52.142;5.364;2022-08-16T07:44:27;23.13;;;17.55;;
69594;SDS011;56800;52.142;5.364;2022-08-16T07:47:14;20.27;;;16.93;;
69594;SDS011;56800;52.142;5.364;2022-08-16T07:49:40;24.23;;;16.33;;
69594;SDS011;56800;52.142;5.364;2022-08-16T07:52:23;20.05;;;16.05;;
69594;SDS011;56800;52.142;5.364;2022-08-16T07:54:55;22.15;;;16.63;;
69594;SDS011;56800;52.142;5.364;2022-08-16T07:57:22;26.92;;;15.68;;
69594;SDS011;56800;52.142;5.364;2022-08-16T07:59:49;24.63;;;15.27;;
69594;SDS011;56800;52.142;5.364;2022-08-16T08:02:17;31.73;;;15.77;;
69594;SDS011;56800;52.142;5.364;2022-08-16T08:04:45;34.97;;;15.98;;
69594;SDS011;56800;52.142;5.364;2022-08-16T08:07:23;33.25;;;17.83;;
69594;SDS011;56800;52.142;5.364;2022-08-16T08:10:05;34.47;;;17.30;;
69594;SDS011;56800;52.142;5.364;2022-08-16T08:13:09;34.33;;;17.33;;
69594;SDS011;56800;52.142;5.364;2022-08-16T08:15:39;30.50;;;18.13;;
69594;SDS011;56800;52.142;5.364;2022-08-16T08:18:18;34.30;;;18.13;;
69594;SDS011;56800;52.142;5.364;2022-08-16T08:20:55;28.10;;;16.40;;
69594;SDS011;56800;52.142;5.364;2022-08-16T08:23:24;27.38;;;20.92;;
69594;SDS011;56800;52.142;5.364;2022-08-16T08:25:52;24.80;;;18.23;;
69594;SDS011;56800;52.142;5.364;2022-08-16T08:28:21;27.27;;;19.20;;
69594;SDS011;56800;52.142;5.364;2022-08-16T08:30:48;21.90;;;16.75;;
69594;SDS011;56800;52.142;5.364;2022-08-16T08:33:26;28.52;;;16.77;;
69594;SDS011;56800;52.142;5.364;2022-08-16T08:35:54;22.15;;;16.08;;
69594;SDS011;56800;52.142;5.364;2022-08-16T08:38:26;22.37;;;16.93;;
69594;SDS011;56800;52.142;5.364;2022-08-16T08:41:11;22.50;;;16.55;;
69594;SDS011;56800;52.142;5.364;2022-08-16T08:43:43;20.02;;;16.13;;
69594;SDS011;56800;52.142;5.364;2022-08-16T08:46:11;26.70;;;17.70;;
69594;SDS011;56800;52.142;5.364;2022-08-16T08:48:47;24.70;;;17.15;;
69594;SDS011;56800;52.142;5.364;2022-08-16T08:51:29;21.57;;;15.03;;
69594;SDS011;56800;52.142;5.364;2022-08-16T08:54:02;28.05;;;16.45;;
69594;SDS011;56800;52.142;5.364;2022-08-16T08:56:35;23.15;;;15.68;;
69594;SDS011;56800;52.142;5.364;2022-08-16T08:59:11;20.45;;;15.15;;
69594;SDS011;56800;52.142;5.364;2022-08-16T09:01:45;21.83;;;15.43;;
69594;SDS011;56800;52.142;5.364;2022-08-16T09:04:23;22.80;;;16.30;;
69594;SDS011;56800;52.142;5.364;2022-08-16T09:06:52;25.70;;;16.85;;
69594;SDS011;56800;52.142;5.364;2022-08-16T09:09:19;24.67;;;17.13;;
69594;SDS011;56800;52.142;5.364;2022-08-16T09:11:47;27.23;;;17.27;;
69594;SDS011;56800;52.142;5.364;2022-08-16T09:14:29;21.65;;;15.95;;
69594;SDS011;56800;52.142;5.364;2022-08-16T09:16:57;23.27;;;16.17;;
69594;SDS011;56800;52.142;5.364;2022-08-16T09:19:37;21.98;;;16.83;;
69594;SDS011;56800;52.142;5.364;2022-08-16T09:22:06;24.83;;;17.05;;
69594;SDS011;56800;52.142;5.364;2022-08-16T09:24:45;20.90;;;14.23;;
69594;SDS011;56800;52.142;5.364;2022-08-16T09:27:19;23.35;;;14.73;;
69594;SDS011;56800;52.142;5.364;2022-08-16T09:29:51;20.00;;;15.10;;
69594;SDS011;56800;52.142;5.364;2022-08-16T09:32:26;23.80;;;14.57;;
69594;SDS011;56800;52.142;5.364;2022-08-16T09:35:08;22.88;;;15.05;;
69594;SDS011;56800;52.142;5.364;2022-08-16T09:37:36;24.38;;;14.68;;
69594;SDS011;56800;52.142;5.364;2022-08-16T09:40:03;20.17;;;14.40;;
69594;SDS011;56800;52.142;5.364;2022-08-16T09:42:52;25.93;;;13.33;;
69594;SDS011;56800;52.142;5.364;2022-08-16T09:45:24;24.17;;;15.95;;
69594;SDS011;56800;52.142;5.364;2022-08-16T09:47:54;17.42;;;12.65;;
69594;SDS011;56800;52.142;5.364;2022-08-16T09:50:24;20.90;;;14.10;;
69594;SDS011;56800;52.142;5.364;2022-08-16T09:53:07;21.08;;;13.15;;
69594;SDS011;56800;52.142;5.364;2022-08-16T09:55:42;19.83;;;12.53;;
69594;SDS011;56800;52.142;5.364;2022-08-16T09:58:14;20.10;;;13.70;;
69594;SDS011;56800;52.142;5.364;2022-08-16T10:01:02;17.17;;;12.65;;
69594;SDS011;56800;52.142;5.364;2022-08-16T10:03:29;18.80;;;13.77;;
69594;SDS011;56800;52.142;5.364;2022-08-16T10:05:56;20.25;;;14.73;;
69594;SDS011;56800;52.142;5.364;2022-08-16T10:08:24;18.90;;;14.63;;
69594;SDS011;56800;52.142;5.364;2022-08-16T10:10:52;21.10;;;14.32;;
69594;SDS011;56800;52.142;5.364;2022-08-16T10:13:38;19.58;;;15.27;;
69594;SDS011;56800;52.142;5.364;2022-08-16T10:16:07;22.45;;;15.98;;
69594;SDS011;56800;52.142;5.364;2022-08-16T10:18:35;21.05;;;14.40;;
69594;SDS011;56800;52.142;5.364;2022-08-16T10:21:22;17.60;;;12.67;;
69594;SDS011;56800;52.142;5.364;2022-08-16T10:23:49;19.85;;;11.93;;
69594;SDS011;56800;52.142;5.364;2022-08-16T10:26:19;18.42;;;12.85;;
69594;SDS011;56800;52.142;5.364;2022-08-16T10:29:06;19.52;;;12.65;;
69594;SDS011;56800;52.142;5.364;2022-08-16T10:31:33;17.80;;;13.63;;
69594;SDS011;56800;52.142;5.364;2022-08-16T10:34:11;19.07;;;12.17;;
69594;SDS011;56800;52.142;5.364;2022-08-16T10:36:57;17.38;;;11.95;;
69594;SDS011;56800;52.142;5.364;2022-08-16T10:39:25;19.52;;;12.90;;
69594;SDS011;56800;52.142;5.364;2022-08-16T10:42:06;17.40;;;13.35;;
69594;SDS011;56800;52.142;5.364;2022-08-16T10:44:33;18.08;;;13.50;;
69594;SDS011;56800;52.142;5.364;2022-08-16T10:46:59;20.20;;;13.10;;
69594;SDS011;56800;52.142;5.364;2022-08-16T10:49:27;18.83;;;11.85;;
69594;SDS011;56800;52.142;5.364;2022-08-16T10:51:54;18.13;;;13.95;;
69594;SDS011;56800;52.142;5.364;2022-08-16T10:54:41;18.90;;;12.18;;
69594;SDS011;56800;52.142;5.364;2022-08-16T10:57:24;23.08;;;15.55;;
69594;SDS011;56800;52.142;5.364;2022-08-16T10:59:58;17.77;;;13.07;;
69594;SDS011;56800;52.142;5.364;2022-08-16T11:02:26;20.02;;;13.50;;
69594;SDS011;56800;52.142;5.364;2022-08-16T11:05:15;18.88;;;14.10;;
69594;SDS011;56800;52.142;5.364;2022-08-16T11:07:44;19.00;;;12.40;;
69594;SDS011;56800;52.142;5.364;2022-08-16T11:10:24;18.65;;;12.93;;
69594;SDS011;56800;52.142;5.364;2022-08-16T11:13:18;17.23;;;12.03;;
69594;SDS011;56800;52.142;5.364;2022-08-16T11:16:10;21.83;;;14.35;;
69594;SDS011;56800;52.142;5.364;2022-08-16T11:18:57;18.50;;;12.25;;
69594;SDS011;56800;52.142;5.364;2022-08-16T11:21:37;23.38;;;13.80;;
69594;SDS011;56800;52.142;5.364;2022-08-16T11:24:24;15.45;;;11.13;;
69594;SDS011;56800;52.142;5.364;2022-08-16T11:27:11;23.13;;;14.87;;
69594;SDS011;56800;52.142;5.364;2022-08-16T11:29:49;21.25;;;15.18;;
69594;SDS011;56800;52.142;5.364;2022-08-16T11:32:20;23.65;;;14.80;;
69594;SDS011;56800;52.142;5.364;2022-08-16T11:34:57;21.38;;;16.50;;
69594;SDS011;56800;52.142;5.364;2022-08-16T11:37:41;22.73;;;17.25;;
69594;SDS011;56800;52.142;5.364;2022-08-16T11:40:32;23.63;;;16.03;;
69594;SDS011;56800;52.142;5.364;2022-08-16T11:43:18;21.42;;;14.48;;
69594;SDS011;56800;52.142;5.364;2022-08-16T11:45:48;29.20;;;17.00;;
69594;SDS011;56800;52.142;5.364;2022-08-16T11:48:19;23.33;;;16.02;;
69594;SDS011;56800;52.142;5.364;2022-08-16T11:50:47;18.58;;;14.75;;
69594;SDS011;56800;52.142;5.364;2022-08-16T11:53:14;22.40;;;16.27;;
69594;SDS011;56800;52.142;5.364;2022-08-16T11:55:42;19.70;;;15.57;;
69594;SDS011;56800;52.142;5.364;2022-08-16T11:58:09;17.48;;;15.57;;
69594;SDS011;56800;52.142;5.364;2022-08-16T12:00:37;16.58;;;14.10;;
69594;SDS011;56800;52.142;5.364;2022-08-16T12:03:18;25.13;;;15.18;;
69594;SDS011;56800;52.142;5.364;2022-08-16T12:06:00;16.97;;;13.10;;
69594;SDS011;56800;52.142;5.364;2022-08-16T12:08:37;25.00;;;15.45;;
69594;SDS011;56800;52.142;5.364;2022-08-16T12:11:06;19.27;;;13.07;;
69594;SDS011;56800;52.142;5.364;2022-08-16T12:13:34;16.67;;;11.90;;
69594;SDS011;56800;52.142;5.364;2022-08-16T12:16:02;20.48;;;15.07;;
69594;SDS011;56800;52.142;5.364;2022-08-16T12:18:29;22.13;;;16.57;;
69594;SDS011;56800;52.142;5.364;2022-08-16T12:20:57;16.55;;;13.88;;
69594;SDS011;56800;52.142;5.364;2022-08-16T12:23:25;21.67;;;16.13;;
69594;SDS011;56800;52.142;5.364;2022-08-16T12:25:51;23.50;;;17.70;;
69594;SDS011;56800;52.142;5.364;2022-08-16T12:28:18;22.58;;;16.38;;
69594;SDS011;56800;52.142;5.364;2022-08-16T12:31:05;19.23;;;14.00;;
69594;SDS011;56800;52.142;5.364;2022-08-16T12:33:32;19.02;;;15.18;;
69594;SDS011;56800;52.142;5.364;2022-08-16T12:36:10;22.88;;;15.27;;
69594;SDS011;56800;52.142;5.364;2022-08-16T12:38:38;20.98;;;15.10;;
69594;SDS011;56800;52.142;5.364;2022-08-16T12:41:14;27.77;;;20.33;;
69594;SDS011;56800;52.142;5.364;2022-08-16T12:43:50;24.20;;;19.33;;
69594;SDS011;56800;52.142;5.364;2022-08-16T12:46:22;24.25;;;16.80;;
69594;SDS011;56800;52.142;5.364;2022-08-16T12:48:50;26.30;;;18.95;;
69594;SDS011;56800;52.142;5.364;2022-08-16T12:51:25;21.50;;;17.30;;
69594;SDS011;56800;52.142;5.364;2022-08-16T12:54:12;25.00;;;20.25;;
69594;SDS011;56800;52.142;5.364;2022-08-16T12:56:39;22.40;;;15.57;;
69594;SDS011;56800;52.142;5.364;2022-08-16T12:59:07;26.38;;;19.17;;
69594;SDS011;56800;52.142;5.364;2022-08-16T13:01:43;21.88;;;16.48;;
69594;SDS011;56800;52.142;5.364;2022-08-16T13:04:15;24.40;;;18.92;;
69594;SDS011;56800;52.142;5.364;2022-08-16T13:06:46;21.42;;;17.85;;
69594;SDS011;56800;52.142;5.364;2022-08-16T13:09:17;25.57;;;15.93;;
69594;SDS011;56800;52.142;5.364;2022-08-16T13:11:56;28.42;;;21.27;;
69594;SDS011;56800;52.142;5.364;2022-08-16T13:14:33;29.20;;;22.10;;
69594;SDS011;56800;52.142;5.364;2022-08-16T13:17:04;26.00;;;19.55;;
69594;SDS011;56800;52.142;5.364;2022-08-16T13:19:36;26.35;;;19.13;;
69594;SDS011;56800;52.142;5.364;2022-08-16T13:22:25;22.57;;;15.87;;
69594;SDS011;56800;52.142;5.364;2022-08-16T13:24:52;22.70;;;17.35;;
69594;SDS011;56800;52.142;5.364;2022-08-16T13:27:19;20.58;;;15.60;;
69594;SDS011;56800;52.142;5.364;2022-08-16T13:30:06;23.63;;;18.60;;
69594;SDS011;56800;52.142;5.364;2022-08-16T13:32:53;27.30;;;19.52;;
69594;SDS011;56800;52.142;5.364;2022-08-16T13:35:21;28.60;;;17.50;;
69594;SDS011;56800;52.142;5.364;2022-08-16T13:37:50;19.73;;;14.30;;
69594;SDS011;56800;52.142;5.364;2022-08-16T13:40:19;14.35;;;11.13;;
69594;SDS011;56800;52.142;5.364;2022-08-16T13:42:47;20.65;;;12.23;;
69594;SDS011;56800;52.142;5.364;2022-08-16T13:45:15;18.20;;;13.32;;
69594;SDS011;56800;52.142;5.364;2022-08-16T13:47:44;17.93;;;12.23;;
69594;SDS011;56800;52.142;5.364;2022-08-16T13:50:12;16.17;;;11.30;;
69594;SDS011;56800;52.142;5.364;2022-08-16T13:52:41;15.15;;;12.63;;
69594;SDS011;56800;52.142;5.364;2022-08-16T13:55:08;14.82;;;9.45;;
69594;SDS011;56800;52.142;5.364;2022-08-16T13:57:43;17.33;;;11.48;;
69594;SDS011;56800;52.142;5.364;2022-08-16T14:00:30;16.93;;;11.33;;
69594;SDS011;56800;52.142;5.364;2022-08-16T14:02:57;13.75;;;10.18;;
69594;SDS011;56800;52.142;5.364;2022-08-16T14:05:24;15.00;;;10.35;;
69594;SDS011;56800;52.142;5.364;2022-08-16T14:07:52;16.27;;;10.20;;
69594;SDS011;56800;52.142;5.364;2022-08-16T14:10:19;16.35;;;10.60;;
69594;SDS011;56800;52.142;5.364;2022-08-16T14:12:46;17.53;;;10.20;;
69594;SDS011;56800;52.142;5.364;2022-08-16T14:15:13;16.50;;;11.70;;
69594;SDS011;56800;52.142;5.364;2022-08-16T14:17:41;15.10;;;11.57;;
69594;SDS011;56800;52.142;5.364;2022-08-16T14:20:27;12.82;;;10.60;;
69594;SDS011;56800;52.142;5.364;2022-08-16T14:22:54;16.92;;;11.32;;
69594;SDS011;56800;52.142;5.364;2022-08-16T14:25:22;15.60;;;12.10;;
69594;SDS011;56800;52.142;5.364;2022-08-16T14:27:51;17.45;;;11.23;;
69594;SDS011;56800;52.142;5.364;2022-08-16T14:30:20;21.02;;;12.95;;
69594;SDS011;56800;52.142;5.364;2022-08-16T14:32:47;22.08;;;11.40;;
69594;SDS011;56800;52.142;5.364;2022-08-16T14:35:21;17.25;;;11.40;;
69594;SDS011;56800;52.142;5.364;2022-08-16T14:38:02;16.93;;;11.90;;
69594;SDS011;56800;52.142;5.364;2022-08-16T14:40:29;14.73;;;11.10;;
69594;SDS011;56800;52.142;5.364;2022-08-16T14:42:56;22.00;;;14.32;;
69594;SDS011;56800;52.142;5.364;2022-08-16T14:45:32;21.70;;;15.85;;
69594;SDS011;56800;52.142;5.364;2022-08-16T14:47:58;27.38;;;14.95;;
69594;SDS011;56800;52.142;5.364;2022-08-16T14:50:26;23.60;;;14.37;;
69594;SDS011;56800;52.142;5.364;2022-08-16T14:52:55;19.75;;;15.00;;
69594;SDS011;56800;52.142;5.364;2022-08-16T14:55:24;18.55;;;14.80;;
69594;SDS011;56800;52.142;5.364;2022-08-16T14:57:52;19.33;;;15.15;;
69594;SDS011;56800;52.142;5.364;2022-08-16T15:00:20;19.58;;;12.85;;
69594;SDS011;56800;52.142;5.364;2022-08-16T15:02:59;25.73;;;14.30;;
69594;SDS011;56800;52.142;5.364;2022-08-16T15:05:27;22.80;;;13.75;;